sensor_id;sensor_type;location;lat;lon;timestamp;P1;durP1;ratioP1;P2;durP2;ratioP2
28070;SDS011;15383;48.408;9.968;2024-03-22T00:00:30;24.52;;;11.23;;
28070;SDS011;15383;48.408;9.968;2024-03-22T00:02:56;19.55;;;11.35;;
28070;SDS011;15383;48.408;9.968;2024-03-22T00:05:21;17.80;;;10.15;;
28070;SDS011;15383;48.408;9.968;2024-03-22T00:07:47;21.73;;;10.98;;
28070;SDS011;15383;48.408;9.968;2024-03-22T00:10:13;20.20;;;10.45;;
28070;SDS011;15383;48.408;9.968;2024-03-22T00:12:39;26.00;;;10.15;;
28070;SDS011;15383;48.408;9.968;2024-03-22T00:15:05;23.35;;;11.13;;
28070;SDS011;15383;48.408;9.968;2024-03-22T00:17:31;27.67;;;11.63;;
28070;SDS011;15383;48.408;9.968;2024-03-22T00:19:56;21.35;;;10.98;;
28070;SDS011;15383;48.408;9.968;2024-03-22T00:22:22;23.65;;;12.07;;
28070;SDS011;15383;48.408;9.968;2024-03-22T00:24:47;21.85;;;11.20;;
28070;SDS011;15383;48.408;9.968;2024-03-22T00:27:13;20.27;;;10.82;;
28070;SDS011;15383;48.408;9.968;2024-03-22T00:29:38;20.73;;;11.35;;
28070;SDS011;15383;48.408;9.968;2024-03-22T00:32:04;21.88;;;11.73;;
28070;SDS011;15383;48.408;9.968;2024-03-22T00:34:32;23.55;;;11.30;;
28070;SDS011;15383;48.408;9.968;2024-03-22T00:36:58;23.08;;;12.55;;
28070;SDS011;15383;48.408;9.968;2024-03-22T00:39:23;28.65;;;13.48;;
28070;SDS011;15383;48.408;9.968;2024-03-22T00:41:49;21.27;;;11.70;;
28070;SDS011;15383;48.408;9.968;2024-03-22T00:44:14;22.27;;;12.57;;
28070;SDS011;15383;48.408;9.968;2024-03-22T00:46:40;26.63;;;12.02;;
28070;SDS011;15383;48.408;9.968;2024-03-22T00:49:05;25.58;;;12.60;;
28070;SDS011;15383;48.408;9.968;2024-03-22T00:51:31;26.05;;;12.60;;
28070;SDS011;15383;48.408;9.968;2024-03-22T00:53:56;26.65;;;13.98;;
28070;SDS011;15383;48.408;9.968;2024-03-22T00:56:22;23.52;;;12.82;;
28070;SDS011;15383;48.408;9.968;2024-03-22T00:58:47;26.73;;;13.77;;
28070;SDS011;15383;48.408;9.968;2024-03-22T01:01:13;29.02;;;13.38;;
28070;SDS011;15383;48.408;9.968;2024-03-22T01:03:38;31.10;;;14.77;;
28070;SDS011;15383;48.408;9.968;2024-03-22T01:06:04;29.38;;;14.48;;
28070;SDS011;15383;48.408;9.968;2024-03-22T01:08:30;27.13;;;12.90;;
28070;SDS011;15383;48.408;9.968;2024-03-22T01:10:55;26.00;;;13.63;;
28070;SDS011;15383;48.408;9.968;2024-03-22T01:13:21;30.55;;;14.20;;
28070;SDS011;15383;48.408;9.968;2024-03-22T01:15:46;27.73;;;13.57;;
28070;SDS011;15383;48.408;9.968;2024-03-22T01:18:12;26.98;;;14.93;;
28070;SDS011;15383;48.408;9.968;2024-03-22T01:20:38;30.63;;;14.98;;
28070;SDS011;15383;48.408;9.968;2024-03-22T01:23:03;33.00;;;15.32;;
28070;SDS011;15383;48.408;9.968;2024-03-22T01:25:29;33.08;;;15.00;;
28070;SDS011;15383;48.408;9.968;2024-03-22T01:27:55;29.70;;;15.10;;
28070;SDS011;15383;48.408;9.968;2024-03-22T01:30:21;26.35;;;13.98;;
28070;SDS011;15383;48.408;9.968;2024-03-22T01:32:47;29.63;;;13.40;;
28070;SDS011;15383;48.408;9.968;2024-03-22T01:35:12;32.97;;;14.55;;
28070;SDS011;15383;48.408;9.968;2024-03-22T01:37:38;24.83;;;13.77;;
28070;SDS011;15383;48.408;9.968;2024-03-22T01:40:04;27.40;;;14.77;;
28070;SDS011;15383;48.408;9.968;2024-03-22T01:42:30;29.70;;;14.65;;
28070;SDS011;15383;48.408;9.968;2024-03-22T01:44:56;31.85;;;15.98;;
28070;SDS011;15383;48.408;9.968;2024-03-22T01:47:21;32.78;;;15.02;;
28070;SDS011;15383;48.408;9.968;2024-03-22T01:49:47;28.40;;;14.80;;
28070;SDS011;15383;48.408;9.968;2024-03-22T01:52:15;29.58;;;14.77;;
28070;SDS011;15383;48.408;9.968;2024-03-22T01:54:41;26.73;;;15.57;;
28070;SDS011;15383;48.408;9.968;2024-03-22T01:57:07;30.63;;;14.50;;
28070;SDS011;15383;48.408;9.968;2024-03-22T01:59:33;29.92;;;14.60;;
28070;SDS011;15383;48.408;9.968;2024-03-22T02:01:59;32.85;;;14.65;;
28070;SDS011;15383;48.408;9.968;2024-03-22T02:04:25;28.95;;;14.40;;
28070;SDS011;15383;48.408;9.968;2024-03-22T02:06:50;26.80;;;14.05;;
28070;SDS011;15383;48.408;9.968;2024-03-22T02:09:16;23.35;;;13.80;;
28070;SDS011;15383;48.408;9.968;2024-03-22T02:11:41;24.50;;;13.10;;
28070;SDS011;15383;48.408;9.968;2024-03-22T02:14:07;25.02;;;12.75;;
28070;SDS011;15383;48.408;9.968;2024-03-22T02:16:33;24.17;;;12.77;;
28070;SDS011;15383;48.408;9.968;2024-03-22T02:18:58;27.52;;;13.85;;
28070;SDS011;15383;48.408;9.968;2024-03-22T02:21:24;28.13;;;13.10;;
28070;SDS011;15383;48.408;9.968;2024-03-22T02:23:50;24.83;;;13.32;;
28070;SDS011;15383;48.408;9.968;2024-03-22T02:26:15;30.73;;;12.95;;
28070;SDS011;15383;48.408;9.968;2024-03-22T02:28:41;31.45;;;12.43;;
28070;SDS011;15383;48.408;9.968;2024-03-22T02:31:06;25.98;;;13.23;;
28070;SDS011;15383;48.408;9.968;2024-03-22T02:33:32;23.92;;;12.23;;
28070;SDS011;15383;48.408;9.968;2024-03-22T02:35:57;22.00;;;12.20;;
28070;SDS011;15383;48.408;9.968;2024-03-22T02:38:23;24.15;;;12.30;;
28070;SDS011;15383;48.408;9.968;2024-03-22T02:40:49;23.35;;;11.50;;
28070;SDS011;15383;48.408;9.968;2024-03-22T02:43:15;22.88;;;11.82;;
28070;SDS011;15383;48.408;9.968;2024-03-22T02:45:43;21.50;;;11.68;;
28070;SDS011;15383;48.408;9.968;2024-03-22T02:48:09;22.55;;;11.23;;
28070;SDS011;15383;48.408;9.968;2024-03-22T02:50:38;26.33;;;12.25;;
28070;SDS011;15383;48.408;9.968;2024-03-22T02:53:04;21.80;;;11.77;;
28070;SDS011;15383;48.408;9.968;2024-03-22T02:55:30;21.67;;;10.90;;
28070;SDS011;15383;48.408;9.968;2024-03-22T02:58:01;21.63;;;10.65;;
28070;SDS011;15383;48.408;9.968;2024-03-22T03:00:27;23.88;;;10.65;;
28070;SDS011;15383;48.408;9.968;2024-03-22T03:02:53;19.13;;;11.32;;
28070;SDS011;15383;48.408;9.968;2024-03-22T03:05:18;29.20;;;12.18;;
28070;SDS011;15383;48.408;9.968;2024-03-22T03:07:44;19.27;;;10.38;;
28070;SDS011;15383;48.408;9.968;2024-03-22T03:10:09;28.55;;;11.20;;
28070;SDS011;15383;48.408;9.968;2024-03-22T03:12:35;21.98;;;10.90;;
28070;SDS011;15383;48.408;9.968;2024-03-22T03:15:00;22.65;;;10.63;;
28070;SDS011;15383;48.408;9.968;2024-03-22T03:17:27;21.95;;;10.57;;
28070;SDS011;15383;48.408;9.968;2024-03-22T03:19:53;25.08;;;11.13;;
28070;SDS011;15383;48.408;9.968;2024-03-22T03:22:19;25.58;;;11.15;;
28070;SDS011;15383;48.408;9.968;2024-03-22T03:24:44;23.17;;;11.32;;
28070;SDS011;15383;48.408;9.968;2024-03-22T03:27:10;22.58;;;11.40;;
28070;SDS011;15383;48.408;9.968;2024-03-22T03:29:36;22.30;;;11.60;;
28070;SDS011;15383;48.408;9.968;2024-03-22T03:32:02;23.23;;;11.05;;
28070;SDS011;15383;48.408;9.968;2024-03-22T03:34:27;20.33;;;10.60;;
28070;SDS011;15383;48.408;9.968;2024-03-22T03:36:53;24.63;;;9.93;;
28070;SDS011;15383;48.408;9.968;2024-03-22T03:39:19;24.95;;;12.88;;
28070;SDS011;15383;48.408;9.968;2024-03-22T03:41:44;18.98;;;10.77;;
28070;SDS011;15383;48.408;9.968;2024-03-22T03:44:10;20.88;;;11.80;;
28070;SDS011;15383;48.408;9.968;2024-03-22T03:46:35;25.42;;;11.85;;
28070;SDS011;15383;48.408;9.968;2024-03-22T03:49:01;19.27;;;11.23;;
28070;SDS011;15383;48.408;9.968;2024-03-22T03:51:26;20.42;;;10.40;;
28070;SDS011;15383;48.408;9.968;2024-03-22T03:53:52;21.75;;;11.45;;
28070;SDS011;15383;48.408;9.968;2024-03-22T03:56:17;22.50;;;12.00;;
28070;SDS011;15383;48.408;9.968;2024-03-22T03:58:45;23.15;;;11.63;;
28070;SDS011;15383;48.408;9.968;2024-03-22T04:01:11;20.83;;;10.70;;
28070;SDS011;15383;48.408;9.968;2024-03-22T04:03:36;21.60;;;11.73;;
28070;SDS011;15383;48.408;9.968;2024-03-22T04:06:02;22.92;;;11.40;;
28070;SDS011;15383;48.408;9.968;2024-03-22T04:08:29;22.90;;;11.48;;
28070;SDS011;15383;48.408;9.968;2024-03-22T04:10:56;25.27;;;11.43;;
28070;SDS011;15383;48.408;9.968;2024-03-22T04:13:22;22.70;;;11.13;;
28070;SDS011;15383;48.408;9.968;2024-03-22T04:15:48;24.45;;;10.52;;
28070;SDS011;15383;48.408;9.968;2024-03-22T04:18:14;22.83;;;11.57;;
28070;SDS011;15383;48.408;9.968;2024-03-22T04:20:40;20.80;;;10.98;;
28070;SDS011;15383;48.408;9.968;2024-03-22T04:23:05;22.92;;;11.05;;
28070;SDS011;15383;48.408;9.968;2024-03-22T04:25:31;20.88;;;11.68;;
28070;SDS011;15383;48.408;9.968;2024-03-22T04:27:56;20.02;;;10.80;;
28070;SDS011;15383;48.408;9.968;2024-03-22T04:30:22;25.13;;;11.23;;
28070;SDS011;15383;48.408;9.968;2024-03-22T04:32:47;21.95;;;9.80;;
28070;SDS011;15383;48.408;9.968;2024-03-22T04:35:13;23.00;;;11.35;;
28070;SDS011;15383;48.408;9.968;2024-03-22T04:37:39;21.80;;;11.07;;
28070;SDS011;15383;48.408;9.968;2024-03-22T04:40:04;22.50;;;11.50;;
28070;SDS011;15383;48.408;9.968;2024-03-22T04:42:31;27.90;;;10.00;;
28070;SDS011;15383;48.408;9.968;2024-03-22T04:44:56;22.60;;;11.48;;
28070;SDS011;15383;48.408;9.968;2024-03-22T04:47:22;21.98;;;11.05;;
28070;SDS011;15383;48.408;9.968;2024-03-22T04:49:48;27.85;;;11.15;;
28070;SDS011;15383;48.408;9.968;2024-03-22T04:52:14;20.67;;;11.07;;
28070;SDS011;15383;48.408;9.968;2024-03-22T04:54:40;23.63;;;11.38;;
28070;SDS011;15383;48.408;9.968;2024-03-22T04:57:05;19.83;;;10.85;;
28070;SDS011;15383;48.408;9.968;2024-03-22T04:59:31;20.45;;;11.00;;
28070;SDS011;15383;48.408;9.968;2024-03-22T05:01:56;25.40;;;10.85;;
28070;SDS011;15383;48.408;9.968;2024-03-22T05:04:22;17.38;;;10.57;;
28070;SDS011;15383;48.408;9.968;2024-03-22T05:06:47;23.13;;;10.60;;
28070;SDS011;15383;48.408;9.968;2024-03-22T05:09:13;15.77;;;9.13;;
28070;SDS011;15383;48.408;9.968;2024-03-22T05:11:38;19.17;;;9.35;;
28070;SDS011;15383;48.408;9.968;2024-03-22T05:14:04;23.17;;;11.07;;
28070;SDS011;15383;48.408;9.968;2024-03-22T05:16:29;20.88;;;10.63;;
28070;SDS011;15383;48.408;9.968;2024-03-22T05:18:55;18.13;;;10.38;;
28070;SDS011;15383;48.408;9.968;2024-03-22T05:21:20;20.25;;;10.90;;
28070;SDS011;15383;48.408;9.968;2024-03-22T05:23:46;20.20;;;10.70;;
28070;SDS011;15383;48.408;9.968;2024-03-22T05:26:12;22.25;;;10.15;;
28070;SDS011;15383;48.408;9.968;2024-03-22T05:28:37;21.30;;;10.75;;
28070;SDS011;15383;48.408;9.968;2024-03-22T05:31:03;21.95;;;10.60;;
28070;SDS011;15383;48.408;9.968;2024-03-22T05:33:28;27.23;;;11.23;;
28070;SDS011;15383;48.408;9.968;2024-03-22T05:35:54;24.15;;;11.25;;
28070;SDS011;15383;48.408;9.968;2024-03-22T05:38:19;18.20;;;10.45;;
28070;SDS011;15383;48.408;9.968;2024-03-22T05:40:45;18.35;;;9.73;;
28070;SDS011;15383;48.408;9.968;2024-03-22T05:43:12;19.92;;;11.35;;
28070;SDS011;15383;48.408;9.968;2024-03-22T05:45:38;20.70;;;11.43;;
28070;SDS011;15383;48.408;9.968;2024-03-22T05:48:04;20.23;;;10.60;;
28070;SDS011;15383;48.408;9.968;2024-03-22T05:50:30;18.85;;;10.32;;
28070;SDS011;15383;48.408;9.968;2024-03-22T05:52:55;23.75;;;11.75;;
28070;SDS011;15383;48.408;9.968;2024-03-22T05:55:21;23.58;;;10.63;;
28070;SDS011;15383;48.408;9.968;2024-03-22T05:57:47;19.80;;;10.32;;
28070;SDS011;15383;48.408;9.968;2024-03-22T06:00:12;22.77;;;11.65;;
28070;SDS011;15383;48.408;9.968;2024-03-22T06:02:38;27.40;;;11.73;;
28070;SDS011;15383;48.408;9.968;2024-03-22T06:05:04;27.58;;;12.00;;
28070;SDS011;15383;48.408;9.968;2024-03-22T06:07:30;25.02;;;11.38;;
28070;SDS011;15383;48.408;9.968;2024-03-22T06:10:03;21.52;;;10.88;;
28070;SDS011;15383;48.408;9.968;2024-03-22T06:12:29;21.88;;;9.95;;
28070;SDS011;15383;48.408;9.968;2024-03-22T06:14:55;21.48;;;10.77;;
28070;SDS011;15383;48.408;9.968;2024-03-22T06:17:20;18.15;;;10.73;;
28070;SDS011;15383;48.408;9.968;2024-03-22T06:19:46;20.80;;;10.50;;
28070;SDS011;15383;48.408;9.968;2024-03-22T06:22:12;20.60;;;10.80;;
28070;SDS011;15383;48.408;9.968;2024-03-22T06:24:37;19.30;;;10.93;;
28070;SDS011;15383;48.408;9.968;2024-03-22T06:27:03;21.13;;;11.13;;
28070;SDS011;15383;48.408;9.968;2024-03-22T06:29:29;23.80;;;12.02;;
28070;SDS011;15383;48.408;9.968;2024-03-22T06:31:54;22.73;;;11.48;;
28070;SDS011;15383;48.408;9.968;2024-03-22T06:34:20;22.88;;;11.45;;
28070;SDS011;15383;48.408;9.968;2024-03-22T06:36:45;23.50;;;11.10;;
28070;SDS011;15383;48.408;9.968;2024-03-22T06:39:12;20.75;;;10.77;;
28070;SDS011;15383;48.408;9.968;2024-03-22T06:41:37;23.88;;;10.43;;
28070;SDS011;15383;48.408;9.968;2024-03-22T06:44:03;23.20;;;11.88;;
28070;SDS011;15383;48.408;9.968;2024-03-22T06:46:29;22.15;;;11.43;;
28070;SDS011;15383;48.408;9.968;2024-03-22T06:48:55;17.30;;;9.93;;
28070;SDS011;15383;48.408;9.968;2024-03-22T06:51:21;21.63;;;10.65;;
28070;SDS011;15383;48.408;9.968;2024-03-22T06:53:46;19.73;;;10.65;;
28070;SDS011;15383;48.408;9.968;2024-03-22T06:56:12;20.50;;;10.93;;
28070;SDS011;15383;48.408;9.968;2024-03-22T06:58:38;22.80;;;10.85;;
28070;SDS011;15383;48.408;9.968;2024-03-22T07:01:04;18.15;;;10.43;;
28070;SDS011;15383;48.408;9.968;2024-03-22T07:03:30;20.35;;;10.98;;
28070;SDS011;15383;48.408;9.968;2024-03-22T07:05:55;25.23;;;11.18;;
28070;SDS011;15383;48.408;9.968;2024-03-22T07:08:22;21.20;;;10.80;;
28070;SDS011;15383;48.408;9.968;2024-03-22T07:10:48;23.35;;;12.20;;
28070;SDS011;15383;48.408;9.968;2024-03-22T07:13:14;21.05;;;11.75;;
28070;SDS011;15383;48.408;9.968;2024-03-22T07:15:39;20.98;;;11.30;;
28070;SDS011;15383;48.408;9.968;2024-03-22T07:18:05;25.27;;;11.20;;
28070;SDS011;15383;48.408;9.968;2024-03-22T07:20:31;23.67;;;11.50;;
28070;SDS011;15383;48.408;9.968;2024-03-22T07:22:56;23.25;;;10.88;;
28070;SDS011;15383;48.408;9.968;2024-03-22T07:25:22;20.08;;;11.25;;
28070;SDS011;15383;48.408;9.968;2024-03-22T07:27:47;19.70;;;11.05;;
28070;SDS011;15383;48.408;9.968;2024-03-22T07:30:14;19.98;;;10.52;;
28070;SDS011;15383;48.408;9.968;2024-03-22T07:32:40;25.00;;;11.40;;
28070;SDS011;15383;48.408;9.968;2024-03-22T07:35:05;23.00;;;11.77;;
28070;SDS011;15383;48.408;9.968;2024-03-22T07:37:32;22.65;;;11.40;;
28070;SDS011;15383;48.408;9.968;2024-03-22T07:39:59;25.70;;;11.18;;
28070;SDS011;15383;48.408;9.968;2024-03-22T07:42:24;22.02;;;11.30;;
28070;SDS011;15383;48.408;9.968;2024-03-22T07:44:50;23.45;;;11.60;;
28070;SDS011;15383;48.408;9.968;2024-03-22T07:47:16;20.83;;;10.75;;
28070;SDS011;15383;48.408;9.968;2024-03-22T07:49:41;22.98;;;12.05;;
28070;SDS011;15383;48.408;9.968;2024-03-22T07:52:07;23.70;;;12.30;;
28070;SDS011;15383;48.408;9.968;2024-03-22T07:54:32;20.30;;;11.40;;
28070;SDS011;15383;48.408;9.968;2024-03-22T07:56:58;20.15;;;11.07;;
28070;SDS011;15383;48.408;9.968;2024-03-22T07:59:23;21.25;;;11.23;;
28070;SDS011;15383;48.408;9.968;2024-03-22T08:01:50;21.90;;;11.32;;
28070;SDS011;15383;48.408;9.968;2024-03-22T08:04:15;19.42;;;11.50;;
28070;SDS011;15383;48.408;9.968;2024-03-22T08:06:41;23.58;;;11.40;;
28070;SDS011;15383;48.408;9.968;2024-03-22T08:09:06;24.65;;;11.85;;
28070;SDS011;15383;48.408;9.968;2024-03-22T08:11:32;24.17;;;12.27;;
28070;SDS011;15383;48.408;9.968;2024-03-22T08:13:58;26.95;;;11.07;;
28070;SDS011;15383;48.408;9.968;2024-03-22T08:16:28;22.95;;;13.23;;
28070;SDS011;15383;48.408;9.968;2024-03-22T08:18:54;24.05;;;12.40;;
28070;SDS011;15383;48.408;9.968;2024-03-22T08:21:20;22.02;;;11.88;;
28070;SDS011;15383;48.408;9.968;2024-03-22T08:23:45;25.40;;;11.80;;
28070;SDS011;15383;48.408;9.968;2024-03-22T08:26:11;20.83;;;12.07;;
28070;SDS011;15383;48.408;9.968;2024-03-22T08:28:37;22.35;;;11.75;;
28070;SDS011;15383;48.408;9.968;2024-03-22T08:31:03;22.95;;;10.75;;
28070;SDS011;15383;48.408;9.968;2024-03-22T08:33:30;19.75;;;10.90;;
28070;SDS011;15383;48.408;9.968;2024-03-22T08:35:55;14.02;;;4.85;;
28070;SDS011;15383;48.408;9.968;2024-03-22T08:38:21;14.25;;;4.57;;
28070;SDS011;15383;48.408;9.968;2024-03-22T08:40:46;10.15;;;3.95;;
28070;SDS011;15383;48.408;9.968;2024-03-22T08:43:13;11.98;;;5.03;;
28070;SDS011;15383;48.408;9.968;2024-03-22T08:45:38;11.10;;;5.30;;
28070;SDS011;15383;48.408;9.968;2024-03-22T08:48:04;11.43;;;5.00;;
28070;SDS011;15383;48.408;9.968;2024-03-22T08:50:30;9.75;;;4.68;;
28070;SDS011;15383;48.408;9.968;2024-03-22T08:52:55;9.52;;;5.10;;
28070;SDS011;15383;48.408;9.968;2024-03-22T08:55:21;9.55;;;4.93;;
28070;SDS011;15383;48.408;9.968;2024-03-22T08:57:47;21.40;;;9.70;;
28070;SDS011;15383;48.408;9.968;2024-03-22T09:00:13;12.27;;;6.22;;
28070;SDS011;15383;48.408;9.968;2024-03-22T09:02:39;11.70;;;7.20;;
28070;SDS011;15383;48.408;9.968;2024-03-22T09:05:05;17.88;;;6.97;;
28070;SDS011;15383;48.408;9.968;2024-03-22T09:07:31;11.23;;;6.20;;
28070;SDS011;15383;48.408;9.968;2024-03-22T09:09:57;11.77;;;5.72;;
28070;SDS011;15383;48.408;9.968;2024-03-22T09:12:22;12.32;;;4.95;;
28070;SDS011;15383;48.408;9.968;2024-03-22T09:14:48;11.48;;;5.43;;
28070;SDS011;15383;48.408;9.968;2024-03-22T09:17:13;11.48;;;6.28;;
28070;SDS011;15383;48.408;9.968;2024-03-22T09:19:39;8.30;;;4.80;;
28070;SDS011;15383;48.408;9.968;2024-03-22T09:22:05;18.00;;;6.57;;
28070;SDS011;15383;48.408;9.968;2024-03-22T09:24:31;12.55;;;6.30;;
28070;SDS011;15383;48.408;9.968;2024-03-22T09:26:56;9.27;;;4.57;;
28070;SDS011;15383;48.408;9.968;2024-03-22T09:29:23;12.82;;;5.88;;
28070;SDS011;15383;48.408;9.968;2024-03-22T09:31:49;10.60;;;4.45;;
28070;SDS011;15383;48.408;9.968;2024-03-22T09:34:15;13.32;;;4.72;;
28070;SDS011;15383;48.408;9.968;2024-03-22T09:36:41;10.70;;;5.65;;
28070;SDS011;15383;48.408;9.968;2024-03-22T09:39:07;8.80;;;5.15;;
28070;SDS011;15383;48.408;9.968;2024-03-22T09:41:33;9.82;;;4.70;;
28070;SDS011;15383;48.408;9.968;2024-03-22T09:44:06;10.52;;;4.88;;
28070;SDS011;15383;48.408;9.968;2024-03-22T09:46:33;10.38;;;4.75;;
28070;SDS011;15383;48.408;9.968;2024-03-22T09:48:59;12.23;;;4.90;;
28070;SDS011;15383;48.408;9.968;2024-03-22T09:51:26;8.23;;;5.10;;
28070;SDS011;15383;48.408;9.968;2024-03-22T09:53:53;8.00;;;4.65;;
28070;SDS011;15383;48.408;9.968;2024-03-22T09:56:20;8.00;;;4.78;;
28070;SDS011;15383;48.408;9.968;2024-03-22T09:58:47;10.82;;;4.70;;
28070;SDS011;15383;48.408;9.968;2024-03-22T10:01:12;8.85;;;4.40;;
28070;SDS011;15383;48.408;9.968;2024-03-22T10:03:38;13.98;;;4.43;;
28070;SDS011;15383;48.408;9.968;2024-03-22T10:06:05;8.35;;;4.50;;
28070;SDS011;15383;48.408;9.968;2024-03-22T10:08:31;11.05;;;4.45;;
28070;SDS011;15383;48.408;9.968;2024-03-22T10:10:57;7.63;;;4.18;;
28070;SDS011;15383;48.408;9.968;2024-03-22T10:13:22;9.88;;;4.75;;
28070;SDS011;15383;48.408;9.968;2024-03-22T10:15:48;10.93;;;4.38;;
28070;SDS011;15383;48.408;9.968;2024-03-22T10:18:14;11.38;;;4.15;;
28070;SDS011;15383;48.408;9.968;2024-03-22T10:20:40;8.70;;;4.43;;
28070;SDS011;15383;48.408;9.968;2024-03-22T10:23:07;5.70;;;3.65;;
28070;SDS011;15383;48.408;9.968;2024-03-22T10:25:33;6.80;;;4.03;;
28070;SDS011;15383;48.408;9.968;2024-03-22T10:27:59;7.25;;;4.00;;
28070;SDS011;15383;48.408;9.968;2024-03-22T10:30:24;9.10;;;4.55;;
28070;SDS011;15383;48.408;9.968;2024-03-22T10:32:51;8.43;;;4.85;;
28070;SDS011;15383;48.408;9.968;2024-03-22T10:35:17;7.35;;;3.83;;
28070;SDS011;15383;48.408;9.968;2024-03-22T10:37:43;7.43;;;3.47;;
28070;SDS011;15383;48.408;9.968;2024-03-22T10:40:09;9.75;;;4.97;;
28070;SDS011;15383;48.408;9.968;2024-03-22T10:42:36;7.90;;;4.78;;
28070;SDS011;15383;48.408;9.968;2024-03-22T10:45:03;5.43;;;3.42;;
28070;SDS011;15383;48.408;9.968;2024-03-22T10:47:29;7.45;;;3.83;;
28070;SDS011;15383;48.408;9.968;2024-03-22T10:50:06;7.07;;;3.60;;
28070;SDS011;15383;48.408;9.968;2024-03-22T10:55:19;9.02;;;4.10;;
28070;SDS011;15383;48.408;9.968;2024-03-22T10:57:58;10.45;;;5.45;;
28070;SDS011;15383;48.408;9.968;2024-03-22T11:00:27;5.90;;;3.15;;
28070;SDS011;15383;48.408;9.968;2024-03-22T11:05:20;9.30;;;5.05;;
28070;SDS011;15383;48.408;9.968;2024-03-22T11:07:45;7.65;;;4.43;;
28070;SDS011;15383;48.408;9.968;2024-03-22T11:10:11;9.25;;;4.90;;
28070;SDS011;15383;48.408;9.968;2024-03-22T11:12:38;14.45;;;3.95;;
28070;SDS011;15383;48.408;9.968;2024-03-22T11:15:05;11.40;;;5.90;;
28070;SDS011;15383;48.408;9.968;2024-03-22T11:17:31;5.47;;;3.30;;
28070;SDS011;15383;48.408;9.968;2024-03-22T11:19:56;10.13;;;5.40;;
28070;SDS011;15383;48.408;9.968;2024-03-22T11:22:22;6.50;;;4.30;;
28070;SDS011;15383;48.408;9.968;2024-03-22T11:24:48;7.80;;;3.95;;
28070;SDS011;15383;48.408;9.968;2024-03-22T11:27:13;5.57;;;3.70;;
28070;SDS011;15383;48.408;9.968;2024-03-22T11:29:39;8.80;;;3.42;;
28070;SDS011;15383;48.408;9.968;2024-03-22T11:32:07;9.20;;;4.55;;
28070;SDS011;15383;48.408;9.968;2024-03-22T11:34:39;10.02;;;4.90;;
28070;SDS011;15383;48.408;9.968;2024-03-22T11:37:06;7.68;;;3.42;;
28070;SDS011;15383;48.408;9.968;2024-03-22T11:39:35;7.55;;;3.05;;
28070;SDS011;15383;48.408;9.968;2024-03-22T11:42:02;6.18;;;3.95;;
28070;SDS011;15383;48.408;9.968;2024-03-22T11:44:29;6.75;;;3.53;;
28070;SDS011;15383;48.408;9.968;2024-03-22T11:46:56;6.25;;;3.30;;
28070;SDS011;15383;48.408;9.968;2024-03-22T11:49:22;7.75;;;3.38;;
28070;SDS011;15383;48.408;9.968;2024-03-22T11:51:47;9.18;;;4.18;;
28070;SDS011;15383;48.408;9.968;2024-03-22T11:54:13;8.38;;;3.80;;
28070;SDS011;15383;48.408;9.968;2024-03-22T11:56:39;5.32;;;2.85;;
28070;SDS011;15383;48.408;9.968;2024-03-22T11:59:06;6.82;;;4.07;;
28070;SDS011;15383;48.408;9.968;2024-03-22T12:01:32;9.80;;;4.35;;
28070;SDS011;15383;48.408;9.968;2024-03-22T12:03:58;7.10;;;3.72;;
28070;SDS011;15383;48.408;9.968;2024-03-22T12:06:24;4.38;;;3.17;;
28070;SDS011;15383;48.408;9.968;2024-03-22T12:08:49;3.88;;;2.25;;
28070;SDS011;15383;48.408;9.968;2024-03-22T12:11:15;6.00;;;3.58;;
28070;SDS011;15383;48.408;9.968;2024-03-22T12:13:41;7.15;;;3.50;;
28070;SDS011;15383;48.408;9.968;2024-03-22T12:16:07;6.95;;;2.75;;
28070;SDS011;15383;48.408;9.968;2024-03-22T12:18:32;6.38;;;3.47;;
28070;SDS011;15383;48.408;9.968;2024-03-22T12:20:58;4.50;;;2.75;;
28070;SDS011;15383;48.408;9.968;2024-03-22T12:23:25;7.97;;;3.03;;
28070;SDS011;15383;48.408;9.968;2024-03-22T12:25:51;4.38;;;2.70;;
28070;SDS011;15383;48.408;9.968;2024-03-22T12:28:17;7.55;;;2.65;;
28070;SDS011;15383;48.408;9.968;2024-03-22T12:30:43;5.47;;;3.10;;
28070;SDS011;15383;48.408;9.968;2024-03-22T12:33:09;3.72;;;2.40;;
28070;SDS011;15383;48.408;9.968;2024-03-22T12:35:41;6.30;;;3.33;;
28070;SDS011;15383;48.408;9.968;2024-03-22T12:38:07;5.53;;;2.80;;
28070;SDS011;15383;48.408;9.968;2024-03-22T12:40:38;4.30;;;2.75;;
28070;SDS011;15383;48.408;9.968;2024-03-22T12:43:04;5.80;;;3.38;;
28070;SDS011;15383;48.408;9.968;2024-03-22T12:45:30;4.20;;;2.65;;
28070;SDS011;15383;48.408;9.968;2024-03-22T12:47:57;2.95;;;2.50;;
28070;SDS011;15383;48.408;9.968;2024-03-22T12:50:23;3.97;;;2.85;;
28070;SDS011;15383;48.408;9.968;2024-03-22T12:52:49;4.05;;;2.75;;
28070;SDS011;15383;48.408;9.968;2024-03-22T12:55:15;3.15;;;1.85;;
28070;SDS011;15383;48.408;9.968;2024-03-22T12:57:40;4.60;;;2.72;;
28070;SDS011;15383;48.408;9.968;2024-03-22T13:00:06;7.57;;;3.42;;
28070;SDS011;15383;48.408;9.968;2024-03-22T13:02:38;5.28;;;3.15;;
28070;SDS011;15383;48.408;9.968;2024-03-22T13:05:04;4.10;;;2.83;;
28070;SDS011;15383;48.408;9.968;2024-03-22T13:07:30;5.93;;;2.92;;
28070;SDS011;15383;48.408;9.968;2024-03-22T13:09:56;4.43;;;2.35;;
28070;SDS011;15383;48.408;9.968;2024-03-22T13:12:21;5.05;;;2.88;;
28070;SDS011;15383;48.408;9.968;2024-03-22T13:14:47;3.92;;;2.80;;
28070;SDS011;15383;48.408;9.968;2024-03-22T13:17:12;4.15;;;2.72;;
28070;SDS011;15383;48.408;9.968;2024-03-22T13:19:38;3.47;;;2.50;;
28070;SDS011;15383;48.408;9.968;2024-03-22T13:22:03;28.20;;;3.95;;
28070;SDS011;15383;48.408;9.968;2024-03-22T13:24:29;31.75;;;5.47;;
28070;SDS011;15383;48.408;9.968;2024-03-22T13:26:55;54.40;;;6.05;;
28070;SDS011;15383;48.408;9.968;2024-03-22T13:29:20;13.15;;;2.95;;
28070;SDS011;15383;48.408;9.968;2024-03-22T13:31:46;35.83;;;4.57;;
28070;SDS011;15383;48.408;9.968;2024-03-22T13:34:11;12.75;;;3.80;;
28070;SDS011;15383;48.408;9.968;2024-03-22T13:36:38;16.13;;;3.08;;
28070;SDS011;15383;48.408;9.968;2024-03-22T13:39:03;6.05;;;2.97;;
28070;SDS011;15383;48.408;9.968;2024-03-22T13:41:29;13.07;;;3.10;;
28070;SDS011;15383;48.408;9.968;2024-03-22T13:43:55;9.88;;;2.58;;
28070;SDS011;15383;48.408;9.968;2024-03-22T13:46:20;6.93;;;3.15;;
28070;SDS011;15383;48.408;9.968;2024-03-22T13:48:46;9.93;;;2.65;;
28070;SDS011;15383;48.408;9.968;2024-03-22T13:51:12;4.63;;;2.50;;
28070;SDS011;15383;48.408;9.968;2024-03-22T13:53:38;7.47;;;3.47;;
28070;SDS011;15383;48.408;9.968;2024-03-22T13:56:04;5.43;;;2.88;;
28070;SDS011;15383;48.408;9.968;2024-03-22T13:58:29;6.10;;;2.63;;
28070;SDS011;15383;48.408;9.968;2024-03-22T14:00:55;4.85;;;2.35;;
28070;SDS011;15383;48.408;9.968;2024-03-22T14:03:20;3.95;;;2.40;;
28070;SDS011;15383;48.408;9.968;2024-03-22T14:05:46;6.25;;;2.85;;
28070;SDS011;15383;48.408;9.968;2024-03-22T14:08:12;3.47;;;2.33;;
28070;SDS011;15383;48.408;9.968;2024-03-22T14:10:37;6.82;;;2.55;;
28070;SDS011;15383;48.408;9.968;2024-03-22T14:13:03;4.47;;;2.10;;
28070;SDS011;15383;48.408;9.968;2024-03-22T14:15:29;5.95;;;2.15;;
28070;SDS011;15383;48.408;9.968;2024-03-22T14:17:57;9.75;;;2.40;;
28070;SDS011;15383;48.408;9.968;2024-03-22T14:20:23;4.13;;;2.20;;
28070;SDS011;15383;48.408;9.968;2024-03-22T14:22:49;5.43;;;1.98;;
28070;SDS011;15383;48.408;9.968;2024-03-22T14:25:16;4.93;;;3.05;;
28070;SDS011;15383;48.408;9.968;2024-03-22T14:27:41;3.65;;;2.28;;